Time;durP1;ratioP1;P1;durP2;ratioP2;P2;SDS_P1;SDS_P2;PMS_P1;PMS_P2;Temp;Humidity;BMP_temperature;BMP_pressure;BME280_temperature;BME280_humidity;BME280_pressure;Samples;Min_cycle;Max_cycle;Signal;HPM_P1;HPM_P2
2023/03/06 00:00:45;;;;;;;5.43;2.63;;;1.10;99.90;;;;;;5156759;27;20121;-82
2023/03/06 00:03:10;;;;;;;12.90;2.85;;;1.20;99.90;;;;;;5156291;27;20506;-81
2023/03/06 00:05:36;;;;;;;7.68;3.00;;;1.20;99.90;;;;;;5156670;27;20043;-81
2023/03/06 00:08:02;;;;;;;11.25;2.45;;;1.20;99.90;;;;;;5138006;27;20043;-80
2023/03/06 00:10:29;;;;;;;4.60;3.13;;;1.30;99.90;;;;;;5138055;27;20466;-81
2023/03/06 00:12:56;;;;;;;;;;;1.30;99.90;;;;;;5156396;27;20505;-82
2023/03/06 00:15:23;;;;;;;4.32;2.55;;;1.40;99.90;;;;;;5137812;27;19925;-80
2023/03/06 00:17:49;;;;;;;5.72;3.28;;;1.30;99.90;;;;;;5156088;27;20039;-81
2023/03/06 00:20:15;;;;;;;5.07;2.65;;;1.40;99.90;;;;;;5137815;27;20389;-81
2023/03/06 00:22:41;;;;;;;7.85;2.63;;;1.40;99.90;;;;;;5156194;27;20042;-81
2023/03/06 00:25:11;;;;;;;7.80;2.72;;;1.40;99.90;;;;;;5137684;27;20100;-82
2023/03/06 00:27:36;;;;;;;11.25;2.70;;;1.40;99.90;;;;;;5155928;27;20049;-81
2023/03/06 00:30:03;;;;;;;10.02;2.83;;;1.40;99.90;;;;;;5155081;27;20121;-82
2023/03/06 00:32:28;;;;;;;7.05;2.70;;;1.40;99.90;;;;;;5137923;27;20050;-80
2023/03/06 00:34:55;;;;;;;6.97;3.28;;;1.40;99.90;;;;;;5155970;27;20042;-80
2023/03/06 00:37:22;;;;;;;10.60;2.60;;;1.40;99.90;;;;;;5155637;27;20054;-82
2023/03/06 00:39:48;;;;;;;4.28;2.88;;;1.40;99.90;;;;;;5155827;27;20034;-81
2023/03/06 00:42:14;;;;;;;4.63;2.63;;;1.40;99.90;;;;;;5155620;27;20045;-80
2023/03/06 00:44:40;;;;;;;5.43;2.63;;;1.40;99.90;;;;;;5155828;27;20070;-80
2023/03/06 00:47:06;;;;;;;6.97;2.65;;;1.50;99.90;;;;;;5120917;27;20082;-81
2023/03/06 00:49:32;;;;;;;5.50;2.63;;;1.40;99.90;;;;;;5155491;27;20485;-80
2023/03/06 00:51:57;;;;;;;6.90;2.85;;;1.50;99.90;;;;;;5155729;27;20049;-82
2023/03/06 00:54:23;;;;;;;6.45;2.72;;;1.50;99.90;;;;;;5155376;27;20054;-81
2023/03/06 00:56:49;;;;;;;4.75;2.70;;;1.50;99.90;;;;;;5155483;27;20043;-81
2023/03/06 00:59:14;;;;;;;7.35;2.70;;;1.50;99.90;;;;;;5155605;27;20039;-80
2023/03/06 01:01:40;;;;;;;6.15;2.85;;;1.50;99.90;;;;;;5137088;27;20047;-82
2023/03/06 01:04:05;;;;;;;7.13;2.70;;;1.50;99.90;;;;;;5137711;27;20046;-81
2023/03/06 01:06:31;;;;;;;6.72;2.70;;;1.50;99.90;;;;;;5137249;27;20050;-81
2023/03/06 01:08:56;;;;;;;7.90;2.90;;;1.50;99.90;;;;;;5137269;27;20039;-82
2023/03/06 01:11:22;;;;;;;4.88;3.45;;;1.50;99.90;;;;;;5137092;27;20035;-81
2023/03/06 01:13:48;;;;;;;6.53;3.10;;;1.50;99.90;;;;;;5155478;27;20418;-80
2023/03/06 01:16:15;;;;;;;9.20;2.95;;;1.50;99.90;;;;;;5155738;27;20477;-81
2023/03/06 01:18:42;;;;;;;5.47;2.95;;;1.50;99.90;;;;;;5155956;27;20062;-80
2023/03/06 01:21:07;;;;;;;4.80;2.90;;;1.50;99.90;;;;;;5137036;27;20091;-81
2023/03/06 01:23:33;;;;;;;7.43;2.80;;;1.50;99.90;;;;;;5155098;27;20050;-81
2023/03/06 01:25:59;;;;;;;6.70;3.15;;;1.90;99.90;;;;;;5136743;27;20053;-81
2023/03/06 01:28:25;;;;;;;5.73;2.80;;;1.50;99.90;;;;;;5136842;27;20047;-82
2023/03/06 01:30:51;;;;;;;6.70;3.20;;;1.50;99.90;;;;;;5155301;27;20047;-80
2023/03/06 01:33:17;;;;;;;6.97;2.97;;;1.50;99.90;;;;;;5155101;27;20409;-81
2023/03/06 01:35:43;;;;;;;6.47;2.83;;;1.50;99.90;;;;;;5137009;27;20042;-80
2023/03/06 01:38:08;;;;;;;5.90;3.00;;;1.50;99.90;;;;;;5119841;27;20546;-80
2023/03/06 01:40:35;;;;;;;5.60;2.92;;;1.50;99.90;;;;;;5136760;27;20427;-81
2023/03/06 01:43:28;;;;;;;9.07;3.05;;;1.50;99.90;;;;;;5158468;27;20121;-80
2023/03/06 01:46:31;;;;;;;6.78;3.00;;;1.60;99.90;;;;;;5159214;27;20086;-80
2023/03/06 01:49:20;;;;;;;6.90;3.30;;;1.60;99.90;;;;;;5140609;27;20141;-81
2023/03/06 01:51:54;;;;;;;6.45;3.15;;;1.60;99.90;;;;;;5159574;27;20043;-80
2023/03/06 01:54:28;;;;;;;7.18;3.58;;;1.60;99.90;;;;;;5158807;27;20482;-81
2023/03/06 01:56:59;;;;;;;8.55;3.45;;;1.60;99.90;;;;;;5140691;27;20034;-81
2023/03/06 01:59:27;;;;;;;6.45;3.35;;;1.60;99.90;;;;;;5140604;27;20067;-81
2023/03/06 02:01:53;;;;;;;7.25;3.65;;;1.60;99.90;;;;;;5158833;27;20042;-81
2023/03/06 02:04:19;;;;;;;9.45;3.63;;;1.60;99.90;;;;;;5159250;27;20043;-81
2023/03/06 02:06:46;;;;;;;6.45;3.70;;;3.90;99.90;;;;;;5140593;27;20038;-81
2023/03/06 02:09:13;;;;;;;6.38;4.10;;;1.60;99.90;;;;;;5140484;27;20101;-81
2023/03/06 02:11:42;;;;;;;14.77;5.82;;;1.60;99.90;;;;;;5158608;27;20406;-81
2023/03/06 02:14:10;;;;;;;12.13;4.40;;;1.60;99.90;;;;;;5158621;27;20095;-82
2023/03/06 02:16:36;;;;;;;8.73;4.13;;;1.60;99.90;;;;;;5140340;27;20050;-81
2023/03/06 02:19:06;;;;;;;6.43;4.40;;;1.60;99.90;;;;;;5158765;27;20405;-80
2023/03/06 02:21:34;;;;;;;6.75;4.72;;;1.70;99.90;;;;;;5158245;27;20046;-82
2023/03/06 02:24:25;;;;;;;9.27;5.05;;;1.70;99.90;;;;;;5158236;27;20061;-80
2023/03/06 02:26:52;;;;;;;10.25;5.18;;;1.70;99.90;;;;;;5158432;27;20054;-81
2023/03/06 02:29:22;;;;;;;11.00;4.65;;;1.70;99.90;;;;;;5140018;27;20081;-80
2023/03/06 02:31:48;;;;;;;8.35;5.13;;;1.70;99.90;;;;;;5158462;27;20103;-80
2023/03/06 02:34:14;;;;;;;7.32;5.25;;;1.80;99.90;;;;;;5158216;27;20082;-81
2023/03/06 02:36:47;;;;;;;8.35;4.78;;;1.80;99.90;;;;;;5140037;27;20474;-81
2023/03/06 02:39:14;;;;;;;11.20;5.82;;;1.80;99.90;;;;;;5158252;27;20038;-81
2023/03/06 02:41:40;;;;;;;10.85;6.30;;;1.80;99.90;;;;;;5139855;27;20143;-82
2023/03/06 02:44:06;;;;;;;7.55;5.47;;;1.80;99.90;;;;;;5122763;27;20134;-81
2023/03/06 02:46:31;;;;;;;11.77;5.68;;;1.80;99.90;;;;;;5157929;27;20056;-80
2023/03/06 02:48:57;;;;;;;9.98;5.25;;;1.80;99.90;;;;;;5157768;27;20058;-80
2023/03/06 02:51:23;;;;;;;8.57;5.68;;;1.90;99.90;;;;;;5158011;27;20051;-82
2023/03/06 02:53:49;;;;;;;10.02;6.45;;;1.90;99.90;;;;;;5156591;27;20038;-81
2023/03/06 02:56:14;;;;;;;7.35;5.25;;;2.70;99.90;;;;;;5158368;27;20046;-81
2023/03/06 02:58:40;;;;;;;11.23;6.00;;;1.90;99.90;;;;;;5122999;27;20389;-81
2023/03/06 03:01:06;;;;;;;9.93;5.97;;;1.90;99.90;;;;;;5157731;27;20428;-80
2023/03/06 03:03:32;;;;;;;8.85;5.78;;;1.90;99.90;;;;;;5157780;27;20051;-81
2023/03/06 03:05:58;;;;;;;9.82;5.65;;;1.90;99.90;;;;;;5157672;27;20035;-80
2023/03/06 03:08:24;;;;;;;8.77;5.13;;;1.90;99.90;;;;;;5157635;27;20123;-81
2023/03/06 03:10:50;;;;;;;9.90;5.07;;;2.00;99.90;;;;;;5158083;27;20118;-80
2023/03/06 03:13:15;;;;;;;10.27;5.68;;;2.00;99.90;;;;;;5138997;27;20509;-81
2023/03/06 03:15:41;;;;;;;9.98;5.68;;;2.00;99.90;;;;;;5157637;27;20125;-82
2023/03/06 03:18:07;;;;;;;10.18;6.07;;;2.00;99.90;;;;;;5138982;27;20084;-82
2023/03/06 03:20:32;;;;;;;9.30;5.63;;;2.00;99.90;;;;;;5157268;27;20042;-81
2023/03/06 03:22:58;;;;;;;7.93;5.72;;;3.50;99.90;;;;;;5139124;27;20034;-80
2023/03/06 03:25:24;;;;;;;11.77;6.38;;;2.00;99.90;;;;;;5157370;27;20061;-81
2023/03/06 03:27:50;;;;;;;11.25;5.95;;;2.00;99.90;;;;;;5157341;27;20127;-82
2023/03/06 03:30:16;;;;;;;11.43;5.85;;;2.10;99.90;;;;;;5138815;27;20066;-81
2023/03/06 03:32:42;;;;;;;9.07;5.85;;;2.10;99.90;;;;;;5157053;27;20054;-79
2023/03/06 03:35:09;;;;;;;9.43;6.10;;;2.10;99.90;;;;;;5157122;27;20042;-81
2023/03/06 03:37:36;;;;;;;11.57;6.57;;;2.10;99.90;;;;;;5157137;27;20081;-82
2023/03/06 03:40:02;;;;;;;11.20;6.07;;;2.10;99.90;;;;;;5138580;27;20050;-80
2023/03/06 03:42:27;;;;;;;11.38;5.78;;;2.10;99.90;;;;;;5138795;27;20064;-82
2023/03/06 03:44:53;;;;;;;15.52;6.85;;;2.10;99.90;;;;;;5157208;27;20087;-81
2023/03/06 03:47:18;;;;;;;8.60;5.60;;;2.10;99.90;;;;;;5156894;27;20048;-82
2023/03/06 03:49:44;;;;;;;12.13;6.30;;;2.10;99.90;;;;;;5138298;27;20447;-82
2023/03/06 03:52:10;;;;;;;10.93;6.85;;;2.10;99.90;;;;;;5138403;27;20474;-82
2023/03/06 03:54:36;;;;;;;10.00;6.43;;;2.10;99.90;;;;;;5138343;27;20113;-81
2023/03/06 03:57:02;;;;;;;10.55;5.85;;;2.20;99.90;;;;;;5156756;27;20418;-82
2023/03/06 03:59:28;;;;;;;10.15;6.65;;;2.20;99.90;;;;;;5156666;27;20045;-82
2023/03/06 04:01:54;;;;;;;10.77;6.78;;;2.20;99.90;;;;;;5156704;27;20035;-82
2023/03/06 04:04:20;;;;;;;13.82;6.85;;;2.20;99.90;;;;;;5156355;27;20541;-83
2023/03/06 04:06:46;;;;;;;9.35;6.35;;;2.20;99.90;;;;;;5156215;27;20089;-81
2023/03/06 04:09:12;;;;;;;11.20;6.22;;;2.20;99.90;;;;;;5137892;27;20035;-82
2023/03/06 04:11:37;;;;;;;13.35;6.97;;;2.20;99.90;;;;;;5137940;27;20050;-79
2023/03/06 04:14:03;;;;;;;12.77;7.20;;;2.20;99.90;;;;;;5138002;27;20125;-81
2023/03/06 04:16:29;;;;;;;10.95;6.85;;;2.50;99.90;;;;;;5138102;27;20216;-82
2023/03/06 04:18:54;;;;;;;11.52;6.80;;;2.20;99.90;;;;;;5156319;27;20130;-80
2023/03/06 04:21:20;;;;;;;15.98;7.35;;;2.20;99.90;;;;;;5156086;27;20470;-82
2023/03/06 04:23:45;;;;;;;11.27;6.97;;;3.60;99.90;;;;;;5156135;27;20043;-83
2023/03/06 04:26:11;;;;;;;5.25;3.08;;;2.60;99.90;;;;;;5156486;27;20447;-80
2023/03/06 04:28:37;;;;;;;4.38;2.40;;;2.10;99.90;;;;;;5156423;27;20043;-82
2023/03/06 04:31:02;;;;;;;4.82;2.42;;;2.00;99.90;;;;;;5155981;27;20042;-81
2023/03/06 04:33:28;;;;;;;2.50;2.10;;;2.00;99.90;;;;;;5156249;27;20048;-82
2023/03/06 04:35:53;;;;;;;2.28;1.85;;;1.90;99.90;;;;;;5155775;27;20039;-80
2023/03/06 04:38:19;;;;;;;1.88;1.67;;;1.80;99.90;;;;;;5137281;27;20043;-81
2023/03/06 04:40:45;;;;;;;2.85;1.65;;;1.80;99.90;;;;;;5155822;27;20078;-81
2023/03/06 04:43:10;;;;;;;2.13;1.55;;;1.80;99.90;;;;;;5137410;27;20487;-79
2023/03/06 04:45:36;;;;;;;1.63;1.40;;;1.70;99.90;;;;;;5156085;27;20398;-79
2023/03/06 04:48:02;;;;;;;2.40;1.85;;;1.70;99.90;;;;;;5155962;27;20473;-81
2023/03/06 04:50:31;;;;;;;3.27;1.80;;;1.70;99.90;;;;;;5137206;27;20409;-80
2023/03/06 04:52:58;;;;;;;1.90;1.60;;;1.60;99.90;;;;;;5137350;27;20126;-81
2023/03/06 04:55:23;;;;;;;;;;;1.60;99.90;;;;;;5137933;27;20435;-80
2023/03/06 04:57:49;;;;;;;2.15;1.80;;;1.60;99.90;;;;;;5155439;27;19919;-80
2023/03/06 05:00:21;;;;;;;2.30;1.77;;;1.60;99.90;;;;;;5155563;27;20035;-80
2023/03/06 05:02:48;;;;;;;2.20;1.77;;;1.60;99.90;;;;;;5155804;27;20044;-81
2023/03/06 05:05:15;;;;;;;2.10;1.88;;;1.50;99.90;;;;;;5155504;27;20379;-82
2023/03/06 05:07:41;;;;;;;2.03;1.63;;;1.50;99.90;;;;;;5136832;27;20043;-81
2023/03/06 05:10:11;;;;;;;2.17;1.70;;;1.50;99.90;;;;;;5155747;27;20130;-81
2023/03/06 05:12:38;;;;;;;2.05;1.80;;;1.40;99.90;;;;;;5155982;27;20047;-82
2023/03/06 05:15:05;;;;;;;2.28;1.83;;;1.40;99.90;;;;;;5156046;27;20052;-83
2023/03/06 05:17:31;;;;;;;2.80;2.13;;;1.40;99.90;;;;;;5155430;27;20386;-82
2023/03/06 05:19:57;;;;;;;2.45;1.95;;;1.40;99.90;;;;;;5156018;27;20111;-82
2023/03/06 05:22:22;;;;;;;2.22;1.70;;;1.40;99.90;;;;;;5155358;27;20427;-83
2023/03/06 05:24:48;;;;;;;2.17;1.63;;;1.40;99.90;;;;;;5155772;27;20065;-81
2023/03/06 05:27:13;;;;;;;2.22;1.80;;;1.30;99.90;;;;;;5119662;27;20482;-81
2023/03/06 05:29:39;;;;;;;2.63;1.85;;;1.30;99.90;;;;;;5136845;27;20054;-83
2023/03/06 05:32:05;;;;;;;2.28;1.65;;;1.30;99.90;;;;;;5155219;27;20359;-83
2023/03/06 05:34:30;;;;;;;2.25;1.73;;;1.30;99.90;;;;;;5155258;27;20049;-81
2023/03/06 05:36:56;;;;;;;3.00;1.73;;;1.30;99.90;;;;;;5155180;27;20041;-83
2023/03/06 05:39:22;;;;;;;2.78;1.80;;;1.20;99.90;;;;;;5137641;27;20367;-81
2023/03/06 05:41:47;;;;;;;2.33;1.70;;;2.00;99.90;;;;;;5136713;27;20035;-80
2023/03/06 05:44:13;;;;;;;4.35;1.70;;;1.30;99.90;;;;;;5154787;27;20051;-83
2023/03/06 05:46:38;;;;;;;1.90;1.70;;;1.30;99.90;;;;;;5155097;27;20050;-84
2023/03/06 05:49:04;;;;;;;2.00;1.55;;;1.30;99.90;;;;;;5154978;27;20430;-83
2023/03/06 05:51:30;;;;;;;3.83;1.48;;;1.30;99.90;;;;;;5136795;27;20052;-82
2023/03/06 05:53:56;;;;;;;2.40;1.70;;;1.20;99.90;;;;;;5155031;27;20126;-81
2023/03/06 05:56:21;;;;;;;2.08;1.65;;;1.20;99.90;;;;;;5155017;27;20470;-82
2023/03/06 05:58:47;;;;;;;4.32;1.70;;;1.20;99.90;;;;;;5155567;27;20039;-82
2023/03/06 06:01:16;;;;;;;2.97;1.73;;;1.30;99.90;;;;;;5154804;27;20042;-83
2023/03/06 06:03:42;;;;;;;1.70;1.30;;;1.30;99.90;;;;;;5154970;27;20118;-82
2023/03/06 06:06:10;;;;;;;5.53;1.90;;;1.30;99.90;;;;;;5119648;27;20046;-82
2023/03/06 06:08:37;;;;;;;2.13;1.65;;;1.20;99.90;;;;;;5155105;27;20121;-82
2023/03/06 06:11:07;;;;;;;2.13;1.60;;;1.30;99.90;;;;;;5155367;27;20087;-81
2023/03/06 06:13:33;;;;;;;2.90;1.83;;;1.20;99.90;;;;;;5155400;27;20050;-80
2023/03/06 06:15:58;;;;;;;2.40;1.85;;;1.20;99.90;;;;;;5136708;27;20486;-83
2023/03/06 06:18:24;;;;;;;2.15;1.70;;;1.10;99.90;;;;;;5155359;27;20035;-81
2023/03/06 06:20:50;;;;;;;2.80;1.50;;;1.10;99.90;;;;;;5154685;27;20125;-81
2023/03/06 06:23:16;;;;;;;2.30;1.70;;;1.00;99.90;;;;;;5136259;27;20383;-82
2023/03/06 06:25:41;;;;;;;2.85;1.67;;;1.00;99.90;;;;;;5154772;27;20088;-82
2023/03/06 06:28:07;;;;;;;2.35;1.88;;;1.00;99.90;;;;;;5154853;27;20042;-81
2023/03/06 06:30:33;;;;;;;1.77;1.50;;;0.90;99.90;;;;;;5139995;27;20043;-82
2023/03/06 06:32:59;;;;;;;1.80;1.60;;;0.90;99.90;;;;;;5158318;27;20129;-82
2023/03/06 06:35:25;;;;;;;3.20;1.85;;;0.90;99.90;;;;;;5158077;27;20047;-81
2023/03/06 06:37:51;;;;;;;3.28;1.80;;;0.90;99.90;;;;;;5140793;27;20054;-81
2023/03/06 06:40:17;;;;;;;1.98;1.65;;;0.90;99.90;;;;;;5122853;27;20035;-81
2023/03/06 06:42:45;;;;;;;2.33;1.92;;;0.90;99.90;;;;;;5158231;27;20054;-81
2023/03/06 06:45:11;;;;;;;2.78;1.90;;;0.90;99.90;;;;;;5158165;27;20050;-79
2023/03/06 06:47:40;;;;;;;6.55;3.55;;;0.90;99.90;;;;;;5158104;27;20071;-84
2023/03/06 06:50:09;;;;;;;4.25;2.70;;;0.90;99.90;;;;;;5139665;27;20054;-80
2023/03/06 06:52:35;;;;;;;4.32;2.72;;;0.90;99.90;;;;;;5172829;27;20075;-81
2023/03/06 06:55:00;;;;;;;2.88;2.47;;;0.90;99.90;;;;;;5182035;27;20035;-83
2023/03/06 06:57:26;;;;;;;3.22;2.40;;;1.70;99.90;;;;;;5182203;27;20039;-81
2023/03/06 06:59:52;;;;;;;4.40;2.78;;;0.90;99.90;;;;;;5163592;27;20081;-81
2023/03/06 07:02:17;;;;;;;4.47;2.85;;;0.90;99.90;;;;;;5145828;27;20031;-80
2023/03/06 07:04:44;;;;;;;4.68;2.75;;;0.90;99.90;;;;;;5181153;27;20019;-81
2023/03/06 07:07:10;;;;;;;3.35;2.35;;;0.90;99.90;;;;;;5171165;27;20035;-86
2023/03/06 07:09:38;;;;;;;4.28;3.00;;;1.00;99.90;;;;;;5122514;27;20035;-82
2023/03/06 07:12:05;;;;;;;4.72;2.90;;;1.10;99.90;;;;;;5139311;27;20031;-82
2023/03/06 07:14:31;;;;;;;4.43;3.30;;;1.10;99.90;;;;;;5122321;27;20093;-87
2023/03/06 07:16:57;;;;;;;4.65;2.85;;;1.30;99.90;;;;;;5139264;27;20039;-88
2023/03/06 07:19:23;;;;;;;4.18;2.53;;;1.30;99.90;;;;;;5122053;27;20042;-87
2023/03/06 07:21:49;;;;;;;3.63;2.30;;;1.40;99.90;;;;;;5122070;27;20035;-81
2023/03/06 07:24:15;;;;;;;4.28;2.55;;;1.50;99.90;;;;;;5122478;27;20054;-79
2023/03/06 07:26:47;;;;;;;3.50;2.42;;;1.60;99.90;;;;;;5158347;27;20047;-77
2023/03/06 07:29:13;;;;;;;3.92;2.50;;;1.60;99.90;;;;;;5157808;27;20470;-82
2023/03/06 07:31:39;;;;;;;4.15;2.67;;;1.70;99.90;;;;;;5158798;27;20126;-86
2023/03/06 07:34:04;;;;;;;3.40;2.38;;;1.70;99.90;;;;;;5141033;27;20050;-83
2023/03/06 07:36:30;;;;;;;4.60;2.50;;;1.70;99.90;;;;;;5158177;27;20429;-78
2023/03/06 07:38:56;;;;;;;6.25;4.43;;;1.80;99.90;;;;;;5142636;27;20049;-81
2023/03/06 07:41:22;;;;;;;4.80;3.67;;;1.80;99.90;;;;;;5139022;27;20534;-82
2023/03/06 07:43:48;;;;;;;4.97;3.58;;;1.90;99.90;;;;;;5160765;27;20034;-79
2023/03/06 07:46:13;;;;;;;4.60;2.85;;;1.90;99.90;;;;;;5157076;27;20039;-83
2023/03/06 07:48:40;;;;;;;8.68;5.60;;;1.90;99.90;;;;;;5137488;27;20034;-82
2023/03/06 07:51:15;;;;;;;3.75;2.78;;;1.90;99.90;;;;;;5138205;27;20081;-82
2023/03/06 07:53:41;;;;;;;24.33;15.88;;;2.00;99.90;;;;;;5138425;27;20039;-82
2023/03/06 07:56:07;;;;;;;15.90;9.85;;;2.00;99.90;;;;;;5157245;27;20168;-82
2023/03/06 07:58:38;;;;;;;5.80;4.38;;;2.10;99.90;;;;;;5121287;27;20422;-82
2023/03/06 08:01:05;;;;;;;5.38;3.03;;;2.40;99.90;;;;;;5138528;27;20073;-81
2023/03/06 08:03:31;;;;;;;5.45;3.03;;;2.20;99.90;;;;;;5138569;27;20084;-83
2023/03/06 08:06:14;;;;;;;3.70;2.80;;;2.20;99.90;;;;;;5121873;27;20082;-82
2023/03/06 08:08:42;;;;;;;4.65;2.40;;;2.20;99.90;;;;;;5138316;27;20043;-80
2023/03/06 08:11:09;;;;;;;3.15;2.10;;;2.10;99.90;;;;;;5138230;27;20058;-82
2023/03/06 08:13:35;;;;;;;3.03;2.20;;;2.10;99.90;;;;;;5126553;27;20039;-82
2023/03/06 08:16:01;;;;;;;3.65;2.20;;;2.20;99.90;;;;;;5116796;27;20035;-82
2023/03/06 08:18:27;;;;;;;2.63;2.05;;;2.20;99.90;;;;;;5135730;27;20047;-83
2023/03/06 08:21:08;;;;;;;3.03;2.13;;;2.20;99.90;;;;;;5117052;27;20046;-83
2023/03/06 08:23:34;;;;;;;7.57;3.03;;;2.20;99.90;;;;;;5117504;27;20486;-82
2023/03/06 08:26:03;;;;;;;3.58;2.35;;;2.10;99.90;;;;;;5117333;27;20123;-82
2023/03/06 08:28:29;;;;;;;3.45;2.13;;;2.10;99.90;;;;;;5135110;27;20088;-82
2023/03/06 08:30:56;;;;;;;7.18;3.40;;;2.10;99.90;;;;;;5117398;27;20127;-82
2023/03/06 08:33:23;;;;;;;5.75;2.38;;;2.10;99.90;;;;;;5117045;27;20051;-82
2023/03/06 08:35:48;;;;;;;4.05;1.90;;;2.40;99.90;;;;;;5117118;27;20061;-82
2023/03/06 08:38:14;;;;;;;3.42;1.80;;;2.20;99.90;;;;;;5135266;27;20490;-82
2023/03/06 08:40:40;;;;;;;2.78;1.92;;;2.30;99.90;;;;;;5135379;27;20046;-82
2023/03/06 08:43:09;;;;;;;2.33;1.73;;;2.40;99.90;;;;;;5135306;27;20039;-82
2023/03/06 08:45:34;;;;;;;6.10;1.98;;;2.50;99.90;;;;;;5117143;27;20122;-83
2023/03/06 08:48:00;;;;;;;2.70;1.70;;;2.50;99.90;;;;;;5135281;27;20129;-82
2023/03/06 08:50:26;;;;;;;3.10;1.73;;;2.60;99.90;;;;;;5116749;27;20100;-82
2023/03/06 08:52:51;;;;;;;4.68;1.90;;;2.60;99.90;;;;;;5116763;27;20055;-83
2023/03/06 08:55:17;;;;;;;5.25;2.28;;;2.80;99.90;;;;;;5134881;27;20084;-83
2023/03/06 08:57:42;;;;;;;3.55;1.70;;;2.90;99.90;;;;;;5116784;27;20046;-83
2023/03/06 09:00:10;;;;;;;3.53;1.70;;;3.00;99.90;;;;;;5134859;27;20486;-83
2023/03/06 09:02:35;;;;;;;2.80;1.83;;;3.20;99.90;;;;;;5134912;27;20055;-83
2023/03/06 09:05:04;;;;;;;4.63;1.80;;;3.20;99.90;;;;;;5117074;27;20108;-80
2023/03/06 09:07:29;;;;;;;4.35;1.80;;;3.40;99.90;;;;;;5116541;27;20047;-82
2023/03/06 09:09:56;;;;;;;2.17;1.50;;;3.50;99.90;;;;;;5135218;27;20035;-82
2023/03/06 09:12:23;;;;;;;2.58;1.58;;;3.70;99.90;;;;;;5134891;27;20058;-82
2023/03/06 09:14:49;;;;;;;2.73;1.47;;;3.80;99.90;;;;;;5135054;28;20398;-82
2023/03/06 09:17:14;;;;;;;2.20;1.70;;;3.90;99.90;;;;;;5134879;28;20280;-82
2023/03/06 09:19:40;;;;;;;5.05;1.95;;;4.00;99.90;;;;;;5116702;28;20039;-82
2023/03/06 09:22:06;;;;;;;3.83;1.77;;;4.10;99.90;;;;;;5134762;28;20467;-82
2023/03/06 09:24:31;;;;;;;4.97;1.73;;;4.30;99.90;;;;;;5134861;28;20092;-82
2023/03/06 09:26:57;;;;;;;1.88;1.58;;;4.40;99.90;;;;;;5116531;28;20047;-82
2023/03/06 09:29:23;;;;;;;2.45;1.83;;;4.90;99.90;;;;;;5134742;28;20501;-82
2023/03/06 09:31:48;;;;;;;3.78;1.50;;;4.50;99.90;;;;;;5117310;28;20078;-82
2023/03/06 09:34:14;;;;;;;3.78;1.48;;;4.60;99.90;;;;;;5134579;28;20440;-82
2023/03/06 09:36:40;;;;;;;2.83;1.40;;;4.60;99.90;;;;;;5116177;28;20050;-82
2023/03/06 09:39:07;;;;;;;2.25;1.40;;;4.60;99.90;;;;;;5116230;28;20091;-82
2023/03/06 09:41:37;;;;;;;3.72;1.40;;;4.70;99.90;;;;;;5134535;28;20430;-82
2023/03/06 09:44:21;;;;;;;4.43;1.40;;;4.70;99.90;;;;;;5134194;28;20482;-82
2023/03/06 09:46:49;;;;;;;3.22;1.38;;;4.70;99.90;;;;;;5099642;28;20386;-82
2023/03/06 09:49:44;;;;;;;4.38;1.35;;;4.80;99.90;;;;;;5116502;28;20108;-82
2023/03/06 09:52:28;;;;;;;2.92;1.40;;;5.00;99.90;;;;;;5134459;28;20042;-82
2023/03/06 09:55:20;;;;;;;5.22;1.50;;;5.10;99.90;;;;;;5134564;28;20425;-82
2023/03/06 09:58:01;;;;;;;2.03;1.13;;;5.20;99.90;;;;;;5116503;28;20039;-81
2023/03/06 10:00:41;;;;;;;7.57;1.60;;;5.20;99.90;;;;;;5115745;28;20429;-81
2023/03/06 10:03:16;;;;;;;1.75;1.23;;;5.20;99.90;;;;;;5118620;27;20058;-81
2023/03/06 10:05:48;;;;;;;2.88;1.40;;;5.00;99.90;;;;;;5120067;27;20047;-80
2023/03/06 10:08:25;;;;;;;2.13;1.30;;;4.90;99.90;;;;;;5138171;27;20062;-81
2023/03/06 10:11:00;;;;;;;2.03;1.30;;;4.90;99.90;;;;;;5138099;27;20035;-80
2023/03/06 10:13:53;;;;;;;1.52;1.10;;;4.90;99.90;;;;;;5137915;27;20057;-81
2023/03/06 10:16:27;;;;;;;2.28;1.30;;;5.10;99.90;;;;;;5138193;27;20058;-81
2023/03/06 10:19:01;;;;;;;7.40;1.48;;;5.20;99.90;;;;;;5137956;27;20050;-81
2023/03/06 10:21:51;;;;;;;4.22;1.38;;;5.20;99.90;;;;;;5119547;27;20050;-81
2023/03/06 10:24:58;;;;;;;1.55;1.23;;;5.30;99.90;;;;;;5137929;27;20050;-82
2023/03/06 10:27:48;;;;;;;1.50;1.20;;;5.40;99.90;;;;;;5038000;28;20045;-81
2023/03/06 10:30:35;;;;;;;5.03;1.30;;;5.60;99.90;;;;;;5038213;28;20036;-82
2023/03/06 10:33:15;;;;;;;1.80;1.23;;;5.70;99.90;;;;;;5119120;27;20137;-81
2023/03/06 10:35:48;;;;;;;3.17;1.15;;;5.90;99.90;;;;;;5137813;27;20428;-81
2023/03/06 10:38:21;;;;;;;3.22;1.20;;;5.90;99.90;;;;;;5137791;27;20049;-81
2023/03/06 10:41:17;;;;;;;3.45;1.20;;;6.00;99.90;;;;;;5137436;27;20064;-81
2023/03/06 10:44:03;;;;;;;2.92;1.10;;;5.90;99.90;;;;;;5126380;27;20091;-81
2023/03/06 10:46:47;;;;;;;1.50;0.90;;;6.00;99.90;;;;;;5123207;27;20051;-81
2023/03/06 10:49:28;;;;;;;3.47;1.20;;;6.00;99.90;;;;;;5119642;27;20051;-81
2023/03/06 10:52:04;;;;;;;4.68;1.05;;;6.00;99.90;;;;;;5119336;27;20084;-80
2023/03/06 10:54:33;;;;;;;3.33;1.00;;;6.00;99.90;;;;;;5137221;27;20050;-81
2023/03/06 10:57:26;;;;;;;1.38;1.00;;;6.20;99.90;;;;;;5136926;27;20518;-81
2023/03/06 10:59:58;;;;;;;1.70;1.00;;;6.00;99.90;;;;;;5137463;27;20053;-81
2023/03/06 11:02:26;;;;;;;3.22;1.20;;;5.90;99.90;;;;;;5136982;27;20099;-81
2023/03/06 11:04:53;;;;;;;1.30;0.90;;;6.00;99.90;;;;;;5118910;27;20490;-81
2023/03/06 11:07:25;;;;;;;1.60;1.10;;;6.10;99.90;;;;;;5136952;27;20391;-82
2023/03/06 11:10:06;;;;;;;1.20;1.10;;;6.30;99.90;;;;;;5137400;27;20436;-82
2023/03/06 11:12:40;;;;;;;4.15;1.40;;;6.50;99.90;;;;;;5118693;27;20054;-81
2023/03/06 11:15:08;;;;;;;3.28;1.15;;;7.40;99.90;;;;;;5135902;27;20039;-81
2023/03/06 11:17:47;;;;;;;2.40;1.20;;;7.10;99.90;;;;;;5118322;27;20043;-81
2023/03/06 11:20:22;;;;;;;2.75;1.30;;;6.80;99.90;;;;;;5118847;27;20065;-82
2023/03/06 11:23:17;;;;;;;2.72;1.52;;;6.90;99.90;;;;;;5118551;27;20160;-81
2023/03/06 11:25:47;;;;;;;3.83;1.10;;;7.00;99.90;;;;;;5135012;27;20058;-81
2023/03/06 11:28:32;;;;;;;1.77;0.93;;;7.20;99.90;;;;;;5137301;27;20039;-81
2023/03/06 11:31:23;;;;;;;2.17;1.00;;;6.90;99.90;;;;;;5119085;27;20040;-81
2023/03/06 11:34:03;;;;;;;4.03;1.10;;;7.10;99.90;;;;;;5137209;27;20043;-82
2023/03/06 11:36:32;;;;;;;2.10;0.98;;;7.20;99.90;;;;;;5136548;27;20047;-81
2023/03/06 11:38:58;;;;;;;1.33;1.10;;;7.50;99.90;;;;;;5137158;27;20398;-81
2023/03/06 11:41:59;;;;;;;2.65;1.00;;;7.50;99.90;;;;;;5136666;27;20039;-81
2023/03/06 11:44:39;;;;;;;2.88;1.00;;;7.50;99.90;;;;;;5052795;28;20106;-81
2023/03/06 11:47:17;;;;;;;5.30;1.05;;;7.60;99.90;;;;;;5127300;27;20063;-81
2023/03/06 11:49:51;;;;;;;3.47;1.10;;;7.50;99.90;;;;;;5136172;27;20097;-81
2023/03/06 11:52:26;;;;;;;1.92;1.08;;;7.50;99.90;;;;;;5136188;27;20047;-82
2023/03/06 11:54:54;;;;;;;5.47;1.20;;;7.50;99.90;;;;;;5136173;27;20047;-81
2023/03/06 11:57:42;;;;;;;2.92;1.27;;;7.60;99.90;;;;;;5117853;27;20053;-81
2023/03/06 12:00:21;;;;;;;2.73;1.30;;;7.70;99.90;;;;;;5136082;27;20043;-81
2023/03/06 12:03:10;;;;;;;2.30;1.20;;;7.70;99.90;;;;;;5136364;27;20047;-82
2023/03/06 12:05:40;;;;;;;4.32;1.10;;;7.60;99.90;;;;;;5117657;27;20050;-82
2023/03/06 12:08:40;;;;;;;2.25;0.95;;;7.50;99.90;;;;;;5135759;27;20374;-82
2023/03/06 12:11:25;;;;;;;1.70;1.02;;;7.50;99.90;;;;;;5117341;27;20483;-82
2023/03/06 12:14:03;;;;;;;4.00;1.27;;;7.70;99.90;;;;;;5135878;27;20098;-82
2023/03/06 12:17:04;;;;;;;4.72;1.27;;;7.60;99.90;;;;;;5136414;27;20054;-82
2023/03/06 12:19:51;;;;;;;2.45;1.27;;;7.90;99.90;;;;;;5135882;27;20078;-81
2023/03/06 12:22:51;;;;;;;2.35;1.20;;;8.10;99.90;;;;;;5135607;27;20047;-81
2023/03/06 12:25:39;;;;;;;2.10;1.38;;;8.30;99.90;;;;;;5117930;27;20051;-82
2023/03/06 12:28:15;;;;;;;3.75;1.35;;;8.40;99.90;;;;;;5135386;27;20176;-81
2023/03/06 12:30:53;;;;;;;3.15;1.25;;;8.50;99.90;;;;;;5135039;27;20050;-82
2023/03/06 12:33:18;;;;;;;3.40;1.10;;;8.50;99.90;;;;;;5135850;27;20072;-82
2023/03/06 12:35:54;;;;;;;1.10;0.90;;;8.60;99.90;;;;;;5135647;27;20083;-82
2023/03/06 12:38:34;;;;;;;3.63;1.10;;;8.50;99.90;;;;;;5135375;27;20055;-82
2023/03/06 12:41:25;;;;;;;1.90;1.00;;;8.30;99.90;;;;;;5136089;27;20394;-82
2023/03/06 12:44:11;;;;;;;3.83;1.17;;;8.20;99.90;;;;;;5136009;27;20069;-82
2023/03/06 12:46:43;;;;;;;3.17;0.90;;;8.10;99.90;;;;;;5136045;27;20070;-82
2023/03/06 12:49:18;;;;;;;2.95;1.20;;;7.90;99.90;;;;;;5135927;27;20059;-82
2023/03/06 12:51:45;;;;;;;1.98;1.25;;;7.90;99.90;;;;;;5135724;27;20043;-82
2023/03/06 12:54:13;;;;;;;3.30;1.20;;;7.90;99.90;;;;;;5135499;27;20047;-82
2023/03/06 12:56:40;;;;;;;2.28;1.20;;;8.00;99.90;;;;;;5134985;27;20120;-82
2023/03/06 12:59:05;;;;;;;2.70;1.30;;;8.00;99.90;;;;;;5116941;27;20051;-82
2023/03/06 13:01:39;;;;;;;2.95;1.13;;;8.00;99.90;;;;;;5134832;27;20126;-82
2023/03/06 13:04:32;;;;;;;4.80;1.13;;;7.80;99.90;;;;;;5134754;27;20047;-82
2023/03/06 13:07:15;;;;;;;3.67;1.35;;;7.80;99.90;;;;;;5116923;27;20537;-82
2023/03/06 13:10:02;;;;;;;1.63;1.10;;;7.60;99.90;;;;;;5134871;27;20155;-82